CGV6 weather

Grand Valley (Martin Field)
Ontario, Canada

Public forecast

Using degrees Celsius for public forecast. Weather courtesy of forecast.io.

Closest aviation weather report (METAR) to Grand Valley (Martin Field)

Closest report is Waterloo Airport, 25.2 nm (46.7 km) S. Retrieved 2019/11/22 06:00 UTC (17 minutes ago):

CYKF 220600Z AUTO 27022G29KT 9SM BKN014 OVC020 07/05 A2966 RMK PRESRR SLP051

Closest aviation forecast (TAF) to Grand Valley (Martin Field)

Closest forecast is Waterloo Airport, 25.2 nm (46.7 km) S. Retrieved 2019-11-22 02:39 UTC (4 hours ago):

TAF TAF CYKF 220138Z 2202/2214 21012G22KT 11/2SM -RA BR OVC007 TEMPO 2202/2206 6SM -RA BR OVC025 BECMG 2202/2204 24015G25KT FM220600 25020G30KT 6SM -RA BR SCT005 OVC010 TEMPO 2206/2212 2SM -RA -DZ BR OVC005 BECMG 2206/2208 27020G30KT FM221200 30020G35KT P6SM OVC015 TEMPO 2212/2214 6SM -SHSN RMK FCST BASED ON AUTO OBS NXT FCST BY 220800Z